createdAt,value
2019-03-16T00:02:55.334Z,6.53
2019-03-16T00:06:59.067Z,18.67
2019-03-16T00:11:02.807Z,6.50
2019-03-16T00:15:06.119Z,11.67
2019-03-16T00:19:09.409Z,9.33
2019-03-16T00:23:13.395Z,9.70
2019-03-16T00:27:16.702Z,15.73
2019-03-16T00:31:20.058Z,13.73
2019-03-16T00:35:23.368Z,16.83
2019-03-16T00:39:26.651Z,9.60
2019-03-16T00:43:30.387Z,7.90
2019-03-16T00:47:34.142Z,7.80
2019-03-16T00:51:37.422Z,13.20
2019-03-16T00:55:41.154Z,15.93
2019-03-16T00:59:44.466Z,10.80
2019-03-16T01:03:47.755Z,11.83
2019-03-16T01:07:51.055Z,9.57
2019-03-16T01:11:54.582Z,19.73
2019-03-16T01:15:57.886Z,14.40
2019-03-16T01:20:01.190Z,14.60
2019-03-16T01:24:04.466Z,15.47
2019-03-16T01:28:09.067Z,14.90
2019-03-16T01:32:13.152Z,9.20
2019-03-16T01:36:16.874Z,21.87
2019-03-16T01:40:20.174Z,10.23
2019-03-16T01:44:23.913Z,12.50
2019-03-16T01:48:27.547Z,9.40
2019-03-16T01:52:30.849Z,11.20
2019-03-16T01:56:34.123Z,9.47
2019-03-16T02:00:38.146Z,11.20
2019-03-16T02:04:41.883Z,14.20
2019-03-16T02:08:45.183Z,7.50
2019-03-16T02:12:48.478Z,17.93
2019-03-16T02:16:52.125Z,9.73
2019-03-16T02:20:55.406Z,7.13
2019-03-16T02:24:59.164Z,12.80
2019-03-16T02:29:02.452Z,9.53
2019-03-16T02:33:13.424Z,8.43
2019-03-16T02:37:11.251Z,12.80
2019-03-16T02:41:14.530Z,7.40
2019-03-16T02:45:17.829Z,6.13
2019-03-16T02:49:22.695Z,15.00
2019-03-16T02:53:26.708Z,12.37
2019-03-16T02:57:30.451Z,14.80
2019-03-16T03:01:33.731Z,23.77
2019-03-16T03:05:37.828Z,10.17
2019-03-16T03:09:41.575Z,10.23
2019-03-16T03:13:44.859Z,9.20
2019-03-16T03:17:48.463Z,9.97
2019-03-16T03:21:51.775Z,13.10
2019-03-16T03:25:55.516Z,15.63
2019-03-16T03:29:58.820Z,8.47
2019-03-16T03:34:02.929Z,9.60
2019-03-16T03:38:06.963Z,9.10
2019-03-16T03:42:11.042Z,8.10
2019-03-16T03:46:14.330Z,8.97
2019-03-16T03:50:17.712Z,10.70
2019-03-16T03:54:21.527Z,6.60
2019-03-16T03:58:24.888Z,6.43
2019-03-16T04:02:28.407Z,10.80
2019-03-16T04:06:31.844Z,3.67
2019-03-16T04:10:35.631Z,4.63
2019-03-16T04:14:38.927Z,2.30
2019-03-16T04:18:42.218Z,5.60
2019-03-16T04:22:46.547Z,7.00
2019-03-16T04:26:49.842Z,10.00
2019-03-16T04:30:53.225Z,7.20
2019-03-16T04:34:56.532Z,2.97
2019-03-16T04:38:59.831Z,9.83
2019-03-16T04:43:03.579Z,3.50
2019-03-16T04:47:06.866Z,7.20
2019-03-16T04:51:10.190Z,6.20
2019-03-16T04:55:13.926Z,4.50
2019-03-16T04:59:18.494Z,4.13
2019-03-16T05:03:22.538Z,9.43
2019-03-16T05:07:26.274Z,5.63
2019-03-16T05:11:29.582Z,5.17
2019-03-16T05:15:33.310Z,5.00
2019-03-16T05:19:37.349Z,5.40
2019-03-16T05:23:40.933Z,6.80
2019-03-16T05:27:44.635Z,6.70
2019-03-16T05:31:50.590Z,5.73
2019-03-16T05:35:53.379Z,8.57
2019-03-16T05:39:57.459Z,6.40
2019-03-16T05:44:00.755Z,15.10
2019-03-16T05:48:04.474Z,9.70
2019-03-16T05:52:08.527Z,14.57
2019-03-16T05:56:12.267Z,12.87
2019-03-16T06:00:15.623Z,9.83
2019-03-16T06:04:19.355Z,7.70
2019-03-16T06:08:22.638Z,6.80
2019-03-16T06:12:25.938Z,9.77
2019-03-16T06:16:29.230Z,14.90
2019-03-16T06:20:32.526Z,5.70
2019-03-16T06:24:35.818Z,9.93
2019-03-16T06:28:39.552Z,9.03
2019-03-16T06:32:42.839Z,6.00
2019-03-16T06:36:46.146Z,6.33
2019-03-16T06:40:49.448Z,5.57
2019-03-16T06:44:52.742Z,9.37
2019-03-16T06:48:56.404Z,4.90
2019-03-16T06:52:59.702Z,4.40
2019-03-16T06:57:03.022Z,3.90
2019-03-16T07:01:06.351Z,5.77
2019-03-16T07:05:09.986Z,9.63
2019-03-16T07:09:13.280Z,3.93
2019-03-16T07:13:16.574Z,2.83
2019-03-16T07:17:20.313Z,6.27
2019-03-16T07:21:24.046Z,5.27
2019-03-16T07:25:27.602Z,13.40
2019-03-16T07:29:30.902Z,9.83
2019-03-16T07:33:34.226Z,7.53
2019-03-16T07:37:37.510Z,8.07
2019-03-16T07:41:40.887Z,6.73
2019-03-16T07:45:44.182Z,7.97
2019-03-16T07:49:47.482Z,5.47
2019-03-16T07:53:51.623Z,7.37
2019-03-16T07:57:55.670Z,6.37
2019-03-16T08:01:59.338Z,6.10
2019-03-16T08:06:02.632Z,14.17
2019-03-16T08:10:06.728Z,7.30
2019-03-16T08:14:10.332Z,14.13
2019-03-16T08:18:14.210Z,13.80
2019-03-16T08:22:17.506Z,9.73
2019-03-16T08:26:20.798Z,8.07
2019-03-16T08:30:24.092Z,9.37
2019-03-16T08:34:27.831Z,11.27
2019-03-16T08:38:31.846Z,14.43
2019-03-16T08:42:35.571Z,13.30
2019-03-16T08:46:39.249Z,12.33
2019-03-16T08:50:42.986Z,16.63
2019-03-16T08:54:46.739Z,13.90
2019-03-16T08:58:50.038Z,12.20
2019-03-16T09:02:53.322Z,14.60
2019-03-16T09:06:56.644Z,12.60
2019-03-16T09:10:59.948Z,19.10
2019-03-16T09:15:03.426Z,19.60
2019-03-16T09:19:07.495Z,19.10
2019-03-16T09:23:11.218Z,20.07
2019-03-16T09:27:14.519Z,18.07
2019-03-16T09:31:17.843Z,24.27
2019-03-16T09:35:21.137Z,27.90
2019-03-16T09:39:24.878Z,21.67
2019-03-16T09:43:28.170Z,21.50
2019-03-16T09:47:31.470Z,25.33
2019-03-16T09:51:34.771Z,18.03
2019-03-16T09:55:38.083Z,20.20
2019-03-16T09:59:41.402Z,23.53
2019-03-16T10:03:45.127Z,28.13
2019-03-16T10:07:48.430Z,13.43
2019-03-16T10:11:52.166Z,24.40
2019-03-16T10:15:55.891Z,17.57
2019-03-16T10:19:59.207Z,15.50
2019-03-16T10:24:03.227Z,16.47
2019-03-16T10:28:07.038Z,22.00
2019-03-16T10:32:10.574Z,15.70
2019-03-16T10:36:13.872Z,16.07
2019-03-16T10:40:17.170Z,27.00
2019-03-16T10:44:20.907Z,20.70
2019-03-16T10:48:24.201Z,26.33
2019-03-16T10:52:27.989Z,25.20
2019-03-16T10:56:31.747Z,26.97
2019-03-16T11:00:35.022Z,15.93
2019-03-16T11:04:38.764Z,25.80
2019-03-16T11:08:42.332Z,21.00
2019-03-16T11:12:45.604Z,17.03
2019-03-16T11:16:48.898Z,20.60
2019-03-16T11:20:52.190Z,19.43
2019-03-16T11:24:55.470Z,16.53
2019-03-16T11:29:08.479Z,19.43
2019-03-16T11:33:04.603Z,18.80
2019-03-16T11:37:08.319Z,12.50
2019-03-16T11:41:12.302Z,10.90
2019-03-16T11:45:17.238Z,12.43
2019-03-16T11:49:20.937Z,12.03
2019-03-16T11:53:24.486Z,18.57
2019-03-16T11:57:28.227Z,9.83
2019-03-16T12:01:31.515Z,10.67
2019-03-16T12:05:34.810Z,13.53
2019-03-16T12:09:38.096Z,9.37
2019-03-16T12:13:43.913Z,18.27
2019-03-16T12:17:46.845Z,13.87
2019-03-16T12:21:50.123Z,14.20
2019-03-16T12:25:54.014Z,8.53
2019-03-16T12:29:57.323Z,14.47
2019-03-16T12:34:00.614Z,8.93
2019-03-16T12:38:03.926Z,11.67
2019-03-16T12:42:07.223Z,8.30
2019-03-16T12:46:10.514Z,8.13
2019-03-16T12:50:14.202Z,10.30
2019-03-16T12:54:17.575Z,4.70
2019-03-16T12:58:21.330Z,6.40
2019-03-16T13:02:24.670Z,13.43
2019-03-16T13:06:28.411Z,6.40
2019-03-16T13:10:32.142Z,8.70
2019-03-16T13:14:35.690Z,10.10
2019-03-16T13:18:38.988Z,6.93
2019-03-16T13:22:42.430Z,7.43
2019-03-16T13:26:46.265Z,9.03
2019-03-16T13:30:49.540Z,10.03
2019-03-16T13:34:52.814Z,3.23
2019-03-16T13:38:56.107Z,6.87
2019-03-16T13:42:59.891Z,10.37
2019-03-16T13:47:03.690Z,3.17
2019-03-16T13:51:13.842Z,11.83
2019-03-16T13:55:17.203Z,7.23
2019-03-16T13:59:20.543Z,8.13
2019-03-16T14:03:24.736Z,6.50
2019-03-16T14:07:28.287Z,4.43
2019-03-16T14:11:31.827Z,5.83
2019-03-16T14:15:38.382Z,7.30
2019-03-16T14:19:41.690Z,4.67
2019-03-16T14:23:45.769Z,8.17
2019-03-16T14:27:49.053Z,7.50
2019-03-16T14:31:52.371Z,15.73
2019-03-16T14:35:56.127Z,3.03
2019-03-16T14:40:00.144Z,5.40
2019-03-16T14:44:03.758Z,6.17
2019-03-16T14:48:07.058Z,5.70
2019-03-16T14:52:10.369Z,15.10
2019-03-16T14:56:13.660Z,8.53
2019-03-16T15:00:19.903Z,7.03
2019-03-16T15:04:23.204Z,5.30
2019-03-16T15:08:27.630Z,6.90
2019-03-16T15:12:30.904Z,5.67
2019-03-16T15:16:34.606Z,5.50
2019-03-16T15:20:38.448Z,10.43
2019-03-16T15:24:42.159Z,3.63
2019-03-16T15:28:45.524Z,9.70
2019-03-16T15:32:48.879Z,11.53
2019-03-16T15:36:52.183Z,4.50
2019-03-16T15:40:55.475Z,3.47
2019-03-16T15:44:58.750Z,3.13
2019-03-16T15:49:02.062Z,4.37
2019-03-16T15:53:05.650Z,4.90
2019-03-16T15:57:08.944Z,5.10
2019-03-16T16:01:12.263Z,4.73
2019-03-16T16:05:16.055Z,3.40
2019-03-16T16:09:19.607Z,4.43
2019-03-16T16:13:23.186Z,4.73
2019-03-16T16:17:27.122Z,4.47
2019-03-16T16:21:30.553Z,6.43
2019-03-16T16:25:33.843Z,3.63
2019-03-16T16:29:37.130Z,8.40
2019-03-16T16:33:41.239Z,7.23
2019-03-16T16:37:45.028Z,4.33
2019-03-16T16:41:48.330Z,5.70
2019-03-16T16:45:52.067Z,5.67
2019-03-16T16:49:55.358Z,6.20
2019-03-16T16:53:58.650Z,6.00
2019-03-16T16:58:02.369Z,6.03
2019-03-16T17:02:05.703Z,9.57
2019-03-16T17:06:09.048Z,7.33
2019-03-16T17:10:12.986Z,14.63
2019-03-16T17:14:17.046Z,13.93
2019-03-16T17:18:20.770Z,11.70
2019-03-16T17:22:24.102Z,6.33
2019-03-16T17:26:27.405Z,8.70
2019-03-16T17:30:30.803Z,8.30
2019-03-16T17:34:34.835Z,4.60
2019-03-16T17:38:38.128Z,8.57
2019-03-16T17:42:41.474Z,5.73
2019-03-16T17:46:44.758Z,3.80
2019-03-16T17:50:48.034Z,7.03
2019-03-16T17:54:51.335Z,10.27
2019-03-16T17:58:55.371Z,4.53
2019-03-16T18:02:58.946Z,9.10
2019-03-16T18:07:02.702Z,7.27
2019-03-16T18:11:05.999Z,5.07
2019-03-16T18:15:11.932Z,4.17
2019-03-16T18:19:15.270Z,6.50
2019-03-16T18:23:18.645Z,9.00
2019-03-16T18:27:22.165Z,5.70
2019-03-16T18:31:25.891Z,7.80
2019-03-16T18:35:29.175Z,7.33
2019-03-16T18:39:32.530Z,7.90
2019-03-16T18:43:35.807Z,7.30
2019-03-16T18:47:39.106Z,5.73
2019-03-16T18:51:42.406Z,9.17
2019-03-16T18:55:46.131Z,12.33
2019-03-16T18:59:49.881Z,10.63
2019-03-16T19:03:53.254Z,7.17
2019-03-16T19:07:56.555Z,8.10
2019-03-16T19:12:00.079Z,10.37
2019-03-16T19:16:03.391Z,8.93
2019-03-16T19:20:07.163Z,8.10
2019-03-16T19:24:10.475Z,8.50
2019-03-16T19:28:13.762Z,18.93
2019-03-16T19:32:17.499Z,11.20
2019-03-16T19:36:20.855Z,10.03
2019-03-16T19:40:24.316Z,10.60
2019-03-16T19:44:28.059Z,6.30
2019-03-16T19:48:31.379Z,8.80
2019-03-16T19:52:34.667Z,10.57
2019-03-16T19:56:37.970Z,11.20
2019-03-16T20:00:41.271Z,13.70
2019-03-16T20:04:45.392Z,9.23
2019-03-16T20:08:48.702Z,7.50
2019-03-16T20:12:53.291Z,10.53
2019-03-16T20:16:57.796Z,8.37
2019-03-16T20:21:01.540Z,10.13
2019-03-16T20:25:04.915Z,5.43
2019-03-16T20:29:08.233Z,12.00
2019-03-16T20:33:11.950Z,8.00
2019-03-16T20:37:16.002Z,12.93
2019-03-16T20:41:19.311Z,9.20
2019-03-16T20:45:22.791Z,7.73
2019-03-16T20:49:26.832Z,7.97
2019-03-16T20:53:30.139Z,8.40
2019-03-16T20:57:33.474Z,10.30
2019-03-16T21:01:37.504Z,9.40
2019-03-16T21:05:40.799Z,9.03
2019-03-16T21:09:44.182Z,9.67
2019-03-16T21:13:48.026Z,13.17
2019-03-16T21:17:51.396Z,12.50
2019-03-16T21:21:54.751Z,10.13
2019-03-16T21:25:58.218Z,10.53
2019-03-16T21:30:02.022Z,9.97
2019-03-16T21:34:05.720Z,7.00
2019-03-16T21:38:09.078Z,11.33
2019-03-16T21:42:12.898Z,9.33
2019-03-16T21:46:16.327Z,9.23
2019-03-16T21:50:19.642Z,8.70
2019-03-16T21:54:23.054Z,9.00
2019-03-16T21:58:26.716Z,10.80
2019-03-16T22:02:30.105Z,6.13
2019-03-16T22:06:33.845Z,4.67
2019-03-16T22:10:37.181Z,10.43
2019-03-16T22:14:40.593Z,5.87
2019-03-16T22:18:44.793Z,10.77
2019-03-16T22:22:48.230Z,9.40
2019-03-16T22:26:51.594Z,6.70
2019-03-16T22:30:55.741Z,7.30
2019-03-16T22:34:59.211Z,7.13
2019-03-16T22:39:02.840Z,6.80
2019-03-16T22:43:06.251Z,9.90
2019-03-16T22:47:09.707Z,9.13
2019-03-16T22:51:13.672Z,6.43
2019-03-16T22:55:16.991Z,13.43
2019-03-16T22:59:20.343Z,9.47
2019-03-16T23:03:23.691Z,5.87
2019-03-16T23:07:27.125Z,6.70
2019-03-16T23:11:30.562Z,11.33
2019-03-16T23:15:33.888Z,10.27
2019-03-16T23:19:38.078Z,13.73
2019-03-16T23:23:42.571Z,9.97
2019-03-16T23:27:46.226Z,9.10
2019-03-16T23:31:49.636Z,12.43
2019-03-16T23:35:53.028Z,14.87
2019-03-16T23:39:56.485Z,7.73
2019-03-16T23:44:00.464Z,9.57
2019-03-16T23:48:03.939Z,7.70
2019-03-16T23:52:07.409Z,8.10
2019-03-16T23:56:10.760Z,9.67
